Time;durP1;ratioP1;P1;durP2;ratioP2;P2;SDS_P1;SDS_P2;PMS_P1;PMS_P2;Temp;Humidity;BMP_temperature;BMP_pressure;BME280_temperature;BME280_humidity;BME280_pressure;Samples;Min_cycle;Max_cycle;Signal;HPM_P1;HPM_P2
2020/12/12 00:01:36;;;;;;;32.72;29.58;;;28.20;79.70;;;;;;5062011;28;20229;-58
2020/12/12 00:04:08;;;;;;;31.95;28.92;;;28.20;79.80;;;;;;5066921;28;20257;-60
2020/12/12 00:06:39;;;;;;;36.83;33.28;;;28.30;80.00;;;;;;5060140;28;20255;-60
2020/12/12 00:09:10;;;;;;;35.60;32.33;;;28.30;80.00;;;;;;5066666;28;20252;-59
2020/12/12 00:11:41;;;;;;;38.35;34.40;;;28.30;80.10;;;;;;5066847;28;20244;-60
2020/12/12 00:14:12;;;;;;;34.80;31.35;;;28.30;80.10;;;;;;5068118;28;20634;-60
2020/12/12 00:16:43;;;;;;;42.70;38.42;;;28.30;80.20;;;;;;5061782;28;20693;-60
2020/12/12 00:19:14;;;;;;;44.53;40.38;;;28.40;80.30;;;;;;5065007;28;20711;-57
2020/12/12 00:21:45;;;;;;;44.70;40.63;;;28.40;80.30;;;;;;5062153;28;20341;-60
2020/12/12 00:24:16;;;;;;;43.53;39.20;;;28.50;80.30;;;;;;5064166;28;20271;-61
2020/12/12 00:26:47;;;;;;;43.70;39.53;;;28.50;80.30;;;;;;5068257;28;20379;-61
2020/12/12 00:29:18;;;;;;;39.47;35.47;;;28.50;80.20;;;;;;5067655;28;20305;-60
2020/12/12 00:31:53;;;;;;;31.67;28.73;;;28.50;80.20;;;;;;5065899;28;20234;-60
2020/12/12 00:34:25;;;;;;;32.05;28.95;;;28.60;80.10;;;;;;5022709;28;20233;-60
2020/12/12 00:36:56;;;;;;;29.42;26.55;;;28.60;80.10;;;;;;5020804;28;20234;-62
2020/12/12 00:39:27;;;;;;;29.08;26.13;;;28.70;80.20;;;;;;5013934;28;20245;-61
2020/12/12 00:41:58;;;;;;;25.00;22.45;;;28.70;80.20;;;;;;5020127;28;20231;-60
2020/12/12 00:44:28;;;;;;;22.52;20.33;;;28.80;79.80;;;;;;5015978;28;20226;-61
2020/12/12 00:46:59;;;;;;;22.30;20.00;;;28.90;79.60;;;;;;5022529;28;20300;-60
2020/12/12 00:49:31;;;;;;;21.50;19.35;;;28.90;79.20;;;;;;5012634;28;20259;-59
2020/12/12 00:52:02;;;;;;;22.40;20.27;;;29.00;79.10;;;;;;5011149;28;20231;-60
2020/12/12 00:54:33;;;;;;;22.08;19.98;;;29.10;79.00;;;;;;4997226;28;20667;-60
2020/12/12 00:57:04;;;;;;;21.70;19.65;;;29.10;78.80;;;;;;4996320;28;20293;-57
2020/12/12 00:59:34;;;;;;;19.58;17.77;;;29.20;78.70;;;;;;5034920;28;20301;-60
2020/12/12 01:02:05;;;;;;;17.67;15.82;;;29.30;78.70;;;;;;5037461;28;20712;-60
2020/12/12 01:04:38;;;;;;;17.50;14.98;;;29.40;78.20;;;;;;5039343;28;20237;-59
2020/12/12 01:07:08;;;;;;;15.27;13.18;;;29.40;77.10;;;;;;5046932;28;20588;-60
2020/12/12 01:09:39;;;;;;;12.52;11.23;;;29.50;76.60;;;;;;5039981;28;20249;-59
2020/12/12 01:12:10;;;;;;;15.40;13.90;;;29.60;76.40;;;;;;5044521;28;20685;-60
2020/12/12 01:14:41;;;;;;;15.20;13.35;;;29.60;75.90;;;;;;5041186;28;20618;-60
2020/12/12 01:17:11;;;;;;;13.20;11.93;;;29.70;75.50;;;;;;5039474;28;20748;-60
2020/12/12 01:19:43;;;;;;;11.75;10.32;;;29.80;74.90;;;;;;5040086;28;20352;-57
2020/12/12 01:22:13;;;;;;;10.20;9.18;;;29.90;74.30;;;;;;5038804;28;20226;-58
2020/12/12 01:24:44;;;;;;;9.55;8.32;;;30.00;73.10;;;;;;5040863;28;20271;-58
2020/12/12 01:27:14;;;;;;;9.00;8.20;;;30.10;72.80;;;;;;5041154;28;20264;-59
2020/12/12 01:29:45;;;;;;;8.70;7.57;;;30.10;72.10;;;;;;5041756;28;20238;-59
2020/12/12 01:32:16;;;;;;;8.60;7.35;;;30.30;71.90;;;;;;5031434;28;20234;-59
2020/12/12 01:34:48;;;;;;;8.35;7.55;;;30.30;71.80;;;;;;5028338;28;20596;-58
2020/12/12 01:37:19;;;;;;;7.85;7.15;;;30.40;71.40;;;;;;5042696;28;20237;-59
2020/12/12 01:39:49;;;;;;;7.75;6.95;;;30.50;71.30;;;;;;5046581;28;20430;-60
2020/12/12 01:42:20;;;;;;;7.35;6.70;;;30.60;70.70;;;;;;5046560;28;20237;-58
2020/12/12 01:44:50;;;;;;;7.85;7.15;;;30.60;70.30;;;;;;5041745;28;20238;-60
2020/12/12 01:47:21;;;;;;;8.35;7.50;;;30.70;69.70;;;;;;5011318;28;21310;-59
2020/12/12 01:49:53;;;;;;;7.13;6.45;;;30.70;68.90;;;;;;5049775;28;20229;-59
2020/12/12 01:52:24;;;;;;;7.90;7.13;;;30.80;68.80;;;;;;5039879;28;20258;-60
2020/12/12 01:54:55;;;;;;;8.05;6.70;;;30.80;68.60;;;;;;5039247;28;20218;-59
2020/12/12 01:57:26;;;;;;;9.60;6.63;;;30.90;68.30;;;;;;5035837;28;20320;-59
2020/12/12 01:59:57;;;;;;;8.93;7.55;;;30.90;68.00;;;;;;5036362;28;20299;-59
2020/12/12 02:02:27;;;;;;;9.38;8.30;;;31.00;67.60;;;;;;5042170;28;20237;-58
2020/12/12 02:05:00;;;;;;;9.05;8.15;;;31.00;67.70;;;;;;4995947;28;20231;-60
2020/12/12 02:07:30;;;;;;;9.25;8.38;;;31.10;67.30;;;;;;5002478;28;20230;-60
2020/12/12 02:10:01;;;;;;;7.88;7.07;;;31.20;66.80;;;;;;4976040;28;20244;-60
2020/12/12 02:12:31;;;;;;;8.38;7.07;;;31.20;66.90;;;;;;4975130;28;20255;-60
2020/12/12 02:15:03;;;;;;;8.63;7.03;;;31.30;66.80;;;;;;4969038;28;20259;-62
2020/12/12 02:17:33;;;;;;;7.68;7.07;;;31.30;66.10;;;;;;4974186;28;20223;-61
2020/12/12 02:20:05;;;;;;;7.55;6.80;;;31.40;66.40;;;;;;5020935;28;20308;-62
2020/12/12 02:22:37;;;;;;;7.15;6.55;;;31.50;65.70;;;;;;5022547;28;20230;-63
2020/12/12 02:25:08;;;;;;;8.07;7.28;;;31.60;65.90;;;;;;5022186;28;20239;-62
2020/12/12 02:27:40;;;;;;;7.13;6.43;;;31.70;66.00;;;;;;5020425;28;20235;-62
2020/12/12 02:30:13;;;;;;;10.05;6.65;;;31.70;65.80;;;;;;5021951;28;20245;-60
2020/12/12 02:32:44;;;;;;;7.95;7.15;;;31.80;65.30;;;;;;5021803;28;20234;-62
2020/12/12 02:35:15;;;;;;;7.72;6.40;;;31.90;64.90;;;;;;5027242;28;21113;-62
2020/12/12 02:37:47;;;;;;;7.70;6.90;;;32.00;65.00;;;;;;5059407;28;20232;-62
2020/12/12 02:40:20;;;;;;;7.43;6.72;;;32.10;64.70;;;;;;5042123;28;20226;-61
2020/12/12 02:42:50;;;;;;;6.80;6.10;;;32.10;64.70;;;;;;5047924;28;20283;-62
2020/12/12 02:45:21;;;;;;;7.90;7.20;;;32.20;64.10;;;;;;5047449;28;20724;-62
2020/12/12 02:47:52;;;;;;;7.05;6.43;;;32.20;63.20;;;;;;5046488;28;20230;-62
2020/12/12 02:50:27;;;;;;;6.72;6.10;;;32.30;63.00;;;;;;5051307;28;20332;-62
2020/12/12 02:53:04;;;;;;;7.18;6.57;;;32.40;62.60;;;;;;5048962;28;20232;-62
2020/12/12 02:55:39;;;;;;;7.05;6.45;;;32.50;62.70;;;;;;5049746;28;20278;-60
2020/12/12 02:58:16;;;;;;;6.70;6.10;;;32.50;62.30;;;;;;5041062;28;20225;-61
2020/12/12 03:00:47;;;;;;;7.28;6.57;;;32.60;62.30;;;;;;5044530;28;20310;-60
2020/12/12 03:03:20;;;;;;;6.47;5.93;;;32.60;61.90;;;;;;5054393;28;20300;-61
2020/12/12 03:05:51;;;;;;;6.65;6.05;;;32.70;62.00;;;;;;5047896;28;20232;-61
2020/12/12 03:08:23;;;;;;;8.93;8.10;;;32.70;61.90;;;;;;5046286;28;20603;-63
2020/12/12 03:10:54;;;;;;;9.50;7.82;;;32.80;61.30;;;;;;5047065;28;20699;-60
2020/12/12 03:13:24;;;;;;;6.50;6.00;;;32.80;61.00;;;;;;5051414;28;20248;-61
2020/12/12 03:15:55;;;;;;;6.35;5.82;;;32.90;61.70;;;;;;5044515;28;20237;-61
2020/12/12 03:18:26;;;;;;;8.95;8.00;;;33.00;61.60;;;;;;5050292;28;20226;-60
2020/12/12 03:20:57;;;;;;;7.70;6.95;;;33.00;61.00;;;;;;5038900;28;20264;-60
2020/12/12 03:23:29;;;;;;;7.32;6.70;;;33.10;61.20;;;;;;5051021;28;20378;-61
2020/12/12 03:25:59;;;;;;;6.90;6.25;;;33.20;61.30;;;;;;5050498;28;20234;-61
2020/12/12 03:28:29;;;;;;;6.88;6.28;;;33.30;61.30;;;;;;5045297;28;20756;-61
2020/12/12 03:31:00;;;;;;;6.80;6.22;;;33.30;61.80;;;;;;5045685;28;20365;-61
2020/12/12 03:33:31;;;;;;;6.50;6.00;;;33.40;60.80;;;;;;5047202;28;20304;-62
2020/12/12 03:36:01;;;;;;;7.35;6.75;;;33.40;60.70;;;;;;5051215;28;20256;-61
2020/12/12 03:38:33;;;;;;;7.03;6.43;;;33.50;60.30;;;;;;5049868;28;20229;-61
2020/12/12 03:41:04;;;;;;;7.72;6.95;;;33.60;59.70;;;;;;5049602;28;20230;-61
2020/12/12 03:43:34;;;;;;;6.65;6.05;;;33.60;59.40;;;;;;5040214;28;20245;-61
2020/12/12 03:46:05;;;;;;;8.65;6.97;;;33.70;59.40;;;;;;5067536;28;20224;-58
2020/12/12 03:48:36;;;;;;;7.88;7.10;;;33.70;59.30;;;;;;5065113;28;20229;-61
2020/12/12 03:51:06;;;;;;;8.32;7.57;;;33.80;59.30;;;;;;5049285;28;20248;-60
2020/12/12 03:53:38;;;;;;;7.57;6.78;;;33.70;59.00;;;;;;5047506;28;20287;-60
2020/12/12 03:56:08;;;;;;;7.82;6.95;;;33.80;59.30;;;;;;5049452;28;20344;-61
2020/12/12 03:58:39;;;;;;;8.32;7.60;;;33.80;59.30;;;;;;5047396;28;20312;-61
2020/12/12 04:01:10;;;;;;;8.23;7.43;;;33.80;59.30;;;;;;5050672;28;20755;-59
2020/12/12 04:03:40;;;;;;;10.25;8.32;;;33.90;59.40;;;;;;5048246;28;20233;-55
2020/12/12 04:06:12;;;;;;;9.38;8.48;;;33.90;59.20;;;;;;5035289;28;20230;-54
2020/12/12 04:08:43;;;;;;;9.13;8.13;;;34.00;59.20;;;;;;5043665;28;20463;-58
2020/12/12 04:11:14;;;;;;;8.20;7.22;;;34.00;59.30;;;;;;5050689;28;20230;-58
2020/12/12 04:13:45;;;;;;;9.35;8.50;;;34.00;59.20;;;;;;5049929;28;20276;-56
2020/12/12 04:16:16;;;;;;;9.27;8.48;;;34.10;59.30;;;;;;5049433;28;20240;-56
2020/12/12 04:18:47;;;;;;;9.73;8.93;;;34.10;59.00;;;;;;5035890;28;20238;-58
2020/12/12 04:21:18;;;;;;;10.88;8.70;;;34.10;58.50;;;;;;5047997;28;20646;-57
2020/12/12 04:23:50;;;;;;;9.43;8.63;;;34.20;57.90;;;;;;5047286;28;20230;-58
2020/12/12 04:26:20;;;;;;;9.18;8.38;;;34.20;58.00;;;;;;5050288;28;20229;-54
2020/12/12 04:28:51;;;;;;;8.75;8.00;;;34.20;57.90;;;;;;5051959;28;20226;-58
2020/12/12 04:31:21;;;;;;;9.88;9.00;;;34.30;57.90;;;;;;5036849;28;20312;-58
2020/12/12 04:33:52;;;;;;;9.48;8.55;;;34.20;57.60;;;;;;5061620;28;20719;-54
2020/12/12 04:36:23;;;;;;;10.57;8.82;;;34.20;57.70;;;;;;5050507;28;20759;-57
2020/12/12 04:38:54;;;;;;;9.77;8.77;;;34.30;57.60;;;;;;5044170;28;20228;-55
2020/12/12 04:41:25;;;;;;;10.30;8.13;;;34.30;57.80;;;;;;5028944;28;20262;-58
2020/12/12 04:43:55;;;;;;;8.43;7.53;;;34.30;57.80;;;;;;5008676;28;20243;-57
2020/12/12 04:46:26;;;;;;;9.00;8.20;;;34.30;58.00;;;;;;5006865;28;20231;-58
2020/12/12 04:48:57;;;;;;;9.05;8.18;;;34.40;58.10;;;;;;4937844;28;20276;-58
2020/12/12 04:51:27;;;;;;;8.45;7.65;;;34.40;57.90;;;;;;4948984;28;20328;-58
2020/12/12 04:53:59;;;;;;;8.50;7.40;;;34.50;58.00;;;;;;4949934;28;20244;-55
2020/12/12 04:56:30;;;;;;;18.38;16.52;;;34.60;57.70;;;;;;4950361;28;20240;-58
2020/12/12 04:59:00;;;;;;;22.75;16.75;;;34.60;58.80;;;;;;4889301;29;20323;-57
2020/12/12 05:01:31;;;;;;;17.05;15.45;;;34.60;59.40;;;;;;4835102;29;20241;-55
2020/12/12 05:04:03;;;;;;;19.52;17.63;;;34.70;59.60;;;;;;4836471;29;20866;-56
2020/12/12 05:06:34;;;;;;;17.25;15.55;;;34.70;59.40;;;;;;4801807;29;20277;-58
2020/12/12 05:09:05;;;;;;;14.93;13.43;;;34.70;59.30;;;;;;4849408;29;20664;-57
2020/12/12 05:11:36;;;;;;;16.75;15.00;;;34.70;59.50;;;;;;4869284;29;20273;-58
2020/12/12 05:14:10;;;;;;;21.42;19.20;;;34.70;59.40;;;;;;4899313;29;20239;-57
2020/12/12 05:16:41;;;;;;;17.25;15.50;;;34.60;59.40;;;;;;4904437;29;20258;-58
2020/12/12 05:19:12;;;;;;;15.05;13.55;;;34.60;59.40;;;;;;4902518;29;20246;-54
2020/12/12 05:21:51;;;;;;;14.50;13.10;;;34.60;59.50;;;;;;4907864;29;20286;-58
2020/12/12 05:24:26;;;;;;;13.82;12.52;;;34.60;59.30;;;;;;4893737;29;20243;-54
2020/12/12 05:27:00;;;;;;;12.77;11.68;;;34.60;58.80;;;;;;4893782;29;20321;-58
2020/12/12 05:29:31;;;;;;;19.02;17.02;;;34.60;59.10;;;;;;4919520;28;20235;-56
2020/12/12 05:32:01;;;;;;;15.85;14.32;;;34.60;58.90;;;;;;4967931;28;20263;-55
2020/12/12 05:34:32;;;;;;;14.23;12.93;;;34.50;58.70;;;;;;4971374;28;20232;-58
2020/12/12 05:37:03;;;;;;;13.93;12.63;;;34.60;59.00;;;;;;5005426;28;20358;-56
2020/12/12 05:39:35;;;;;;;13.73;12.27;;;34.60;59.10;;;;;;4970367;28;20252;-57
2020/12/12 05:42:06;;;;;;;13.32;12.02;;;34.50;59.30;;;;;;4970186;28;20260;-57
2020/12/12 05:44:37;;;;;;;13.60;12.20;;;34.60;59.40;;;;;;4919561;28;20390;-56
2020/12/12 05:47:08;;;;;;;16.52;14.88;;;34.60;59.20;;;;;;4949543;28;20391;-53
2020/12/12 05:49:38;;;;;;;14.20;11.80;;;34.60;59.30;;;;;;4949490;28;20245;-55
2020/12/12 05:52:08;;;;;;;12.75;11.68;;;34.60;60.00;;;;;;4948709;28;20235;-57
2020/12/12 05:54:40;;;;;;;15.82;14.43;;;34.70;59.70;;;;;;4949291;28;20237;-57
2020/12/12 05:57:11;;;;;;;14.48;12.02;;;34.70;59.40;;;;;;4949910;28;20229;-55
2020/12/12 05:59:42;;;;;;;13.18;11.98;;;34.80;59.50;;;;;;4948342;28;20229;-57
2020/12/12 06:02:14;;;;;;;14.43;13.02;;;34.80;59.20;;;;;;4909165;29;20330;-56
2020/12/12 06:04:51;;;;;;;13.65;12.43;;;34.80;58.90;;;;;;4910702;29;20337;-55
2020/12/12 06:07:28;;;;;;;14.43;13.02;;;34.80;58.80;;;;;;4925954;29;20316;-56
2020/12/12 06:10:01;;;;;;;15.80;14.30;;;34.90;58.70;;;;;;4948834;28;20331;-56
2020/12/12 06:12:32;;;;;;;13.05;11.73;;;34.90;58.50;;;;;;5004929;28;20250;-56
2020/12/12 06:15:03;;;;;;;15.40;13.95;;;34.90;58.60;;;;;;4987901;28;20227;-57
2020/12/12 06:17:45;;;;;;;13.90;12.70;;;34.90;58.50;;;;;;4987937;28;20235;-55
2020/12/12 06:20:16;;;;;;;14.68;13.30;;;35.00;58.70;;;;;;5004009;28;20674;-56
2020/12/12 06:22:47;;;;;;;17.02;15.43;;;35.00;58.30;;;;;;5005303;28;20284;-57
2020/12/12 06:25:19;;;;;;;15.25;13.90;;;35.00;58.10;;;;;;4992480;28;20235;-57
2020/12/12 06:27:52;;;;;;;15.18;13.90;;;35.10;58.50;;;;;;5008403;28;20239;-54
2020/12/12 06:30:23;;;;;;;14.48;12.98;;;35.10;58.20;;;;;;5006474;28;20578;-53
2020/12/12 06:32:59;;;;;;;13.70;12.43;;;35.10;58.10;;;;;;5016314;28;20241;-55
2020/12/12 06:35:35;;;;;;;14.10;13.00;;;35.20;58.30;;;;;;5006137;28;20230;-56
2020/12/12 06:38:25;;;;;;;16.50;14.90;;;35.20;58.00;;;;;;5021530;28;20601;-56
2020/12/12 06:40:58;;;;;;;15.77;14.25;;;35.30;57.50;;;;;;5027943;28;20261;-56
2020/12/12 06:43:29;;;;;;;13.30;11.90;;;35.30;57.50;;;;;;5026314;28;20383;-57
2020/12/12 06:46:00;;;;;;;17.67;15.80;;;35.30;57.80;;;;;;5024369;28;20231;-54
2020/12/12 06:48:31;;;;;;;15.98;14.18;;;35.30;57.60;;;;;;5025945;28;20270;-55
2020/12/12 06:51:02;;;;;;;14.27;12.85;;;35.20;57.90;;;;;;5024899;28;20241;-60
2020/12/12 06:53:34;;;;;;;13.27;11.98;;;35.20;57.90;;;;;;5027196;28;20329;-58
2020/12/12 06:56:15;;;;;;;16.13;14.68;;;35.20;58.10;;;;;;4998252;28;20231;-57
2020/12/12 06:58:46;;;;;;;15.07;13.68;;;35.30;57.90;;;;;;5025395;28;20580;-56
2020/12/12 07:01:30;;;;;;;16.02;14.43;;;35.30;58.00;;;;;;5024494;28;20323;-58
2020/12/12 07:04:01;;;;;;;17.27;13.57;;;35.40;57.80;;;;;;5026440;28;20246;-57
2020/12/12 07:06:32;;;;;;;16.58;15.13;;;35.40;57.80;;;;;;5045432;28;20684;-55
2020/12/12 07:09:04;;;;;;;14.68;13.27;;;35.50;57.70;;;;;;5055472;28;20623;-56
2020/12/12 07:11:36;;;;;;;15.38;13.82;;;35.50;57.30;;;;;;5067849;28;20645;-54
2020/12/12 07:14:06;;;;;;;15.95;14.55;;;35.50;57.00;;;;;;5068163;28;20229;-55
2020/12/12 07:16:37;;;;;;;16.52;15.02;;;35.60;56.90;;;;;;5068031;28;20304;-55
2020/12/12 07:19:07;;;;;;;14.20;12.80;;;35.60;56.90;;;;;;5026467;28;20252;-56
2020/12/12 07:21:41;;;;;;;15.32;13.82;;;35.60;56.50;;;;;;5019684;28;20227;-57
2020/12/12 07:24:12;;;;;;;18.73;16.83;;;35.60;56.50;;;;;;5025573;28;20237;-57
2020/12/12 07:26:44;;;;;;;19.88;17.83;;;35.70;56.30;;;;;;4981686;28;20313;-58
2020/12/12 07:29:15;;;;;;;14.73;13.38;;;35.70;56.30;;;;;;5006697;28;20431;-56
2020/12/12 07:31:45;;;;;;;13.65;12.38;;;35.70;56.20;;;;;;5029083;28;20250;-56
2020/12/12 07:34:19;;;;;;;14.23;13.05;;;35.70;56.00;;;;;;5020167;28;20733;-55
2020/12/12 07:36:58;;;;;;;15.13;13.68;;;35.70;56.20;;;;;;5026393;28;20440;-57
2020/12/12 07:39:30;;;;;;;16.00;14.60;;;35.70;56.00;;;;;;5028782;28;20241;-58
2020/12/12 07:42:02;;;;;;;16.25;14.10;;;35.80;56.10;;;;;;5028596;28;20240;-54
2020/12/12 07:44:32;;;;;;;14.95;13.65;;;35.80;56.10;;;;;;5016228;28;20231;-56
2020/12/12 07:47:03;;;;;;;14.13;12.82;;;35.90;56.30;;;;;;5017430;28;20258;-55
2020/12/12 07:49:34;;;;;;;16.13;14.55;;;35.90;55.90;;;;;;5036593;28;20225;-57
2020/12/12 07:52:06;;;;;;;17.27;15.63;;;35.90;55.70;;;;;;5053567;28;20232;-57
2020/12/12 07:54:40;;;;;;;17.00;14.82;;;35.90;55.80;;;;;;5056357;28;20758;-55
2020/12/12 07:57:13;;;;;;;15.75;14.27;;;35.80;55.90;;;;;;5069641;28;20244;-57
2020/12/12 07:59:43;;;;;;;16.13;14.63;;;35.80;55.90;;;;;;5067421;28;20229;-56
2020/12/12 08:02:15;;;;;;;14.82;13.52;;;35.70;55.80;;;;;;5067846;28;20239;-56
2020/12/12 08:04:45;;;;;;;15.57;14.18;;;35.60;55.80;;;;;;5063461;28;20233;-55
2020/12/12 08:07:19;;;;;;;15.35;13.88;;;35.60;55.90;;;;;;5037897;28;20649;-58
2020/12/12 08:09:50;;;;;;;19.00;17.10;;;35.50;56.00;;;;;;5077674;28;20241;-57
2020/12/12 08:12:32;;;;;;;16.92;15.35;;;35.40;56.20;;;;;;5046267;28;20225;-57
2020/12/12 08:15:13;;;;;;;16.25;14.85;;;35.30;56.60;;;;;;5069241;28;20234;-58
2020/12/12 08:17:44;;;;;;;17.17;15.63;;;35.30;56.80;;;;;;5050742;28;20220;-56
2020/12/12 08:20:17;;;;;;;17.42;15.73;;;35.20;57.00;;;;;;5065723;28;20220;-58
2020/12/12 08:22:48;;;;;;;16.55;15.05;;;35.20;57.20;;;;;;5065685;28;20229;-57
2020/12/12 08:25:18;;;;;;;21.15;19.15;;;35.10;57.20;;;;;;5056760;28;20229;-58
2020/12/12 08:27:51;;;;;;;21.50;18.38;;;35.10;57.20;;;;;;5009803;28;20758;-57
2020/12/12 08:30:21;;;;;;;17.42;15.93;;;35.00;57.30;;;;;;5007750;28;20235;-57
2020/12/12 08:32:54;;;;;;;19.05;17.25;;;35.00;57.20;;;;;;4993378;28;20243;-57
2020/12/12 08:35:44;;;;;;;17.50;15.93;;;35.00;57.30;;;;;;5013092;28;20392;-54
2020/12/12 08:38:14;;;;;;;18.88;16.83;;;35.00;57.60;;;;;;5005356;28;20227;-57
2020/12/12 08:40:49;;;;;;;18.02;16.23;;;34.90;57.80;;;;;;5008263;28;20276;-57
2020/12/12 08:43:20;;;;;;;16.98;15.48;;;35.00;57.80;;;;;;5007073;28;20238;-55
2020/12/12 08:45:56;;;;;;;17.75;15.98;;;34.90;57.70;;;;;;5008455;28;20231;-58
2020/12/12 08:48:33;;;;;;;17.73;16.20;;;34.90;57.70;;;;;;5004416;28;20737;-57
2020/12/12 08:51:04;;;;;;;16.85;15.25;;;34.90;57.50;;;;;;4995495;28;20322;-56
2020/12/12 08:53:35;;;;;;;17.77;16.17;;;34.90;57.70;;;;;;5006688;28;20241;-58
2020/12/12 08:56:10;;;;;;;15.82;14.52;;;34.90;57.80;;;;;;4992515;28;20232;-57
2020/12/12 08:58:44;;;;;;;18.73;17.05;;;34.90;57.80;;;;;;5011283;28;20230;-59
2020/12/12 09:01:32;;;;;;;17.80;16.05;;;34.90;57.90;;;;;;5037111;28;20753;-58
2020/12/12 09:04:06;;;;;;;18.05;16.55;;;34.80;57.90;;;;;;5061200;28;20568;-58
2020/12/12 09:06:57;;;;;;;17.63;16.00;;;34.80;58.10;;;;;;5033560;28;20234;-57
2020/12/12 09:09:27;;;;;;;17.23;15.73;;;34.70;58.20;;;;;;5049968;28;20634;-57
2020/12/12 09:11:59;;;;;;;18.17;16.58;;;34.70;58.00;;;;;;5045233;28;20284;-59
2020/12/12 09:14:34;;;;;;;15.50;14.02;;;34.70;57.80;;;;;;5030607;28;20880;-57
2020/12/12 09:17:06;;;;;;;14.25;12.90;;;34.60;57.90;;;;;;5038945;28;20244;-60
2020/12/12 09:19:37;;;;;;;15.48;14.00;;;34.70;58.00;;;;;;5048994;28;20229;-55
2020/12/12 09:22:08;;;;;;;17.08;15.52;;;34.70;58.10;;;;;;5048780;28;20229;-59
2020/12/12 09:24:39;;;;;;;19.58;17.75;;;34.60;58.10;;;;;;5046690;28;20230;-60
2020/12/12 09:27:12;;;;;;;17.30;15.80;;;34.60;58.80;;;;;;5048819;28;20229;-58
2020/12/12 09:29:44;;;;;;;16.80;15.30;;;34.60;58.10;;;;;;5042790;28;20237;-58
2020/12/12 09:32:15;;;;;;;15.60;14.20;;;34.60;58.10;;;;;;5040566;28;20245;-57
2020/12/12 09:34:45;;;;;;;17.15;15.65;;;34.50;58.20;;;;;;5005117;28;20562;-56
2020/12/12 09:37:15;;;;;;;19.00;17.00;;;34.50;58.20;;;;;;5044907;28;20244;-58
2020/12/12 09:39:46;;;;;;;18.33;16.45;;;34.50;58.40;;;;;;5037848;28;20238;-56
2020/12/12 09:42:17;;;;;;;19.38;17.67;;;34.50;58.40;;;;;;5036535;28;20230;-60
2020/12/12 09:44:49;;;;;;;18.23;16.33;;;34.50;58.50;;;;;;5045640;28;20234;-58
2020/12/12 09:47:19;;;;;;;16.85;15.35;;;34.40;58.60;;;;;;5042606;28;20241;-58
2020/12/12 09:49:50;;;;;;;17.17;15.68;;;34.40;58.50;;;;;;5043281;28;20235;-56
2020/12/12 09:52:22;;;;;;;17.77;16.08;;;34.30;58.60;;;;;;5046328;28;20260;-57
2020/12/12 09:54:53;;;;;;;19.90;18.10;;;34.30;58.90;;;;;;5042364;28;20654;-55
2020/12/12 09:57:27;;;;;;;19.58;17.90;;;34.20;59.20;;;;;;5048222;28;20627;-57
2020/12/12 09:59:59;;;;;;;20.23;18.42;;;34.20;59.70;;;;;;5044620;28;20271;-58
2020/12/12 10:02:29;;;;;;;19.23;17.40;;;34.20;59.80;;;;;;5046169;28;20303;-58
2020/12/12 10:05:00;;;;;;;19.25;17.25;;;34.20;59.70;;;;;;5029229;28;20689;-57
2020/12/12 10:07:31;;;;;;;17.77;16.08;;;34.10;59.80;;;;;;5039782;28;20225;-59
2020/12/12 10:10:01;;;;;;;18.60;16.85;;;34.10;59.80;;;;;;5041745;28;20229;-57
2020/12/12 10:12:31;;;;;;;18.77;17.08;;;34.10;60.00;;;;;;5067099;28;20240;-56
2020/12/12 10:15:03;;;;;;;19.55;17.58;;;34.00;60.00;;;;;;5048927;28;20309;-56
2020/12/12 10:17:34;;;;;;;16.23;14.82;;;34.00;60.10;;;;;;5064442;28;20304;-58
2020/12/12 10:20:05;;;;;;;20.15;18.25;;;34.00;60.00;;;;;;5058843;28;20233;-58
2020/12/12 10:22:35;;;;;;;22.45;20.15;;;34.00;60.20;;;;;;5048951;28;20287;-58
2020/12/12 10:25:06;;;;;;;21.95;19.85;;;34.00;60.20;;;;;;5049260;28;20688;-57
2020/12/12 10:27:37;;;;;;;20.80;18.75;;;33.90;60.30;;;;;;5044920;28;20236;-57
2020/12/12 10:30:10;;;;;;;19.45;17.65;;;33.90;60.40;;;;;;5047468;28;20254;-58
2020/12/12 10:32:42;;;;;;;22.38;20.08;;;33.80;60.40;;;;;;5045803;28;20690;-57
2020/12/12 10:35:12;;;;;;;21.48;19.45;;;33.80;60.70;;;;;;5047427;28;20299;-56
2020/12/12 10:37:45;;;;;;;20.63;17.88;;;33.70;60.90;;;;;;5038008;28;20590;-57
2020/12/12 10:40:19;;;;;;;20.38;18.55;;;33.70;61.00;;;;;;5041600;28;20228;-56
2020/12/12 10:42:50;;;;;;;20.48;18.70;;;33.70;61.10;;;;;;5019916;28;20229;-53
2020/12/12 10:45:22;;;;;;;20.48;18.70;;;33.70;61.30;;;;;;5044194;28;20687;-57
2020/12/12 10:47:52;;;;;;;21.02;19.05;;;33.70;61.50;;;;;;5041935;28;20234;-56
2020/12/12 10:50:23;;;;;;;21.65;19.52;;;33.70;61.60;;;;;;5044162;28;20312;-53
2020/12/12 10:52:54;;;;;;;25.50;23.15;;;33.70;61.70;;;;;;5040946;28;20230;-52
2020/12/12 10:55:26;;;;;;;25.20;23.00;;;33.70;62.00;;;;;;5044810;28;20630;-57
2020/12/12 10:57:56;;;;;;;25.65;23.30;;;33.60;62.00;;;;;;5047216;28;20238;-55
2020/12/12 11:00:28;;;;;;;24.67;22.30;;;33.50;61.90;;;;;;5044510;28;20239;-53
2020/12/12 11:02:59;;;;;;;24.48;22.05;;;33.50;62.10;;;;;;5045396;28;20250;-58
2020/12/12 11:05:30;;;;;;;23.92;21.70;;;33.50;62.20;;;;;;5046725;28;20662;-56
2020/12/12 11:08:00;;;;;;;22.83;20.48;;;33.40;62.30;;;;;;5046129;28;20226;-56
2020/12/12 11:10:31;;;;;;;22.38;20.20;;;33.40;62.30;;;;;;5048665;28;20226;-55
2020/12/12 11:13:02;;;;;;;20.95;18.85;;;33.40;62.40;;;;;;5048109;28;20667;-57
2020/12/12 11:15:39;;;;;;;20.50;18.50;;;33.30;62.50;;;;;;5049747;28;20249;-54
2020/12/12 11:18:11;;;;;;;20.23;18.33;;;33.30;62.70;;;;;;5047066;28;20279;-56
2020/12/12 11:20:42;;;;;;;19.33;17.45;;;33.30;62.70;;;;;;5049688;28;20226;-57
2020/12/12 11:23:12;;;;;;;19.50;17.63;;;33.30;62.80;;;;;;5039693;28;20237;-55
2020/12/12 11:25:46;;;;;;;19.70;17.85;;;33.30;62.90;;;;;;5046406;28;20226;-57
2020/12/12 11:28:17;;;;;;;18.90;17.00;;;33.30;63.00;;;;;;5048536;28;20284;-56
2020/12/12 11:30:58;;;;;;;19.92;18.02;;;33.20;63.10;;;;;;5045473;28;20233;-59
2020/12/12 11:33:29;;;;;;;21.08;19.13;;;33.20;63.50;;;;;;5048142;28;20233;-57
2020/12/12 11:36:12;;;;;;;21.20;18.95;;;33.20;63.40;;;;;;5048780;28;20233;-57
2020/12/12 11:38:46;;;;;;;21.55;19.55;;;33.20;63.70;;;;;;5043580;28;20240;-55
2020/12/12 11:41:35;;;;;;;22.70;20.35;;;33.20;63.70;;;;;;5033431;28;20669;-53
2020/12/12 11:44:38;;;;;;;21.70;19.67;;;33.20;63.90;;;;;;5047035;28;20230;-51
2020/12/12 11:47:09;;;;;;;22.83;20.75;;;33.20;64.00;;;;;;5037742;28;20233;-56
2020/12/12 11:49:40;;;;;;;25.50;23.20;;;33.20;64.20;;;;;;5047171;28;20323;-53
2020/12/12 11:52:11;;;;;;;26.15;23.58;;;33.20;64.30;;;;;;5044153;28;20690;-54
2020/12/12 11:54:42;;;;;;;27.55;25.02;;;33.10;64.50;;;;;;5047805;28;20578;-54
2020/12/12 11:57:12;;;;;;;26.50;24.13;;;33.10;64.80;;;;;;5045301;28;20836;-55
2020/12/12 11:59:44;;;;;;;26.85;24.05;;;33.10;65.00;;;;;;5043918;28;20571;-56
2020/12/12 12:02:15;;;;;;;27.80;25.20;;;33.10;65.20;;;;;;4994333;28;20241;-54
2020/12/12 12:04:46;;;;;;;29.95;27.33;;;33.10;65.40;;;;;;4998943;28;20363;-53
2020/12/12 12:07:17;;;;;;;27.13;24.52;;;33.10;65.70;;;;;;5001961;28;20250;-51
2020/12/12 12:09:50;;;;;;;23.50;21.35;;;33.00;65.70;;;;;;5003608;28;20686;-57
2020/12/12 12:12:20;;;;;;;26.77;24.33;;;33.00;65.80;;;;;;5000680;28;20688;-55
2020/12/12 12:14:51;;;;;;;25.63;23.17;;;33.00;66.00;;;;;;5004168;28;20322;-55
2020/12/12 12:17:23;;;;;;;27.08;24.38;;;33.00;66.10;;;;;;4997566;28;20648;-55
2020/12/12 12:19:54;;;;;;;26.08;23.58;;;32.90;66.30;;;;;;5004388;28;20298;-53
2020/12/12 12:22:24;;;;;;;23.92;21.70;;;32.90;66.40;;;;;;5002411;28;20321;-52
2020/12/12 12:24:55;;;;;;;22.60;20.42;;;32.90;66.50;;;;;;5006063;28;20789;-53
2020/12/12 12:27:25;;;;;;;24.17;22.10;;;32.90;66.60;;;;;;5001363;28;20235;-53
2020/12/12 12:29:56;;;;;;;23.48;21.30;;;32.90;66.90;;;;;;5004649;28;20250;-53
2020/12/12 12:32:28;;;;;;;26.98;24.20;;;32.90;67.00;;;;;;5013098;28;20591;-56
2020/12/12 12:34:58;;;;;;;27.45;24.88;;;32.80;67.20;;;;;;5045062;28;20264;-54
2020/12/12 12:37:31;;;;;;;27.23;24.77;;;32.80;67.30;;;;;;5046800;28;20295;-54
2020/12/12 12:40:02;;;;;;;27.80;25.35;;;32.80;67.40;;;;;;5045044;28;20319;-53
2020/12/12 12:42:33;;;;;;;24.35;22.15;;;32.80;67.50;;;;;;5046139;28;20324;-53
2020/12/12 12:45:03;;;;;;;29.33;26.52;;;32.70;67.50;;;;;;5046520;28;20238;-56
2020/12/12 12:47:35;;;;;;;28.58;25.88;;;32.70;67.80;;;;;;5043479;28;20272;-53
2020/12/12 12:50:06;;;;;;;27.67;25.08;;;32.70;68.00;;;;;;5044468;28;20275;-57
2020/12/12 12:52:37;;;;;;;26.73;24.35;;;32.70;68.10;;;;;;5045152;28;20611;-53
2020/12/12 12:55:09;;;;;;;26.08;23.65;;;32.70;68.30;;;;;;5047618;28;20272;-56
2020/12/12 12:57:39;;;;;;;25.88;23.45;;;32.60;68.40;;;;;;5045659;28;20257;-55